sensor_id;sensor_type;location;lat;lon;timestamp;pressure;altitude;pressure_sealevel;temperature;humidity
11888;BME280;6003;42.756;23.130;2023-02-28T00:00:07;153860.91;;;5.64;100.00
11888;BME280;6003;42.756;23.130;2023-02-28T00:02:36;153852.97;;;5.61;100.00
11888;BME280;6003;42.756;23.130;2023-02-28T00:05:03;153847.72;;;5.59;100.00
11888;BME280;6003;42.756;23.130;2023-02-28T00:07:31;153801.66;;;5.41;100.00
11888;BME280;6003;42.756;23.130;2023-02-28T00:09:58;153775.31;;;5.31;100.00
11888;BME280;6003;42.756;23.130;2023-02-28T00:12:26;153758.22;;;5.24;100.00
11888;BME280;6003;42.756;23.130;2023-02-28T00:14:53;153748.97;;;5.20;100.00
11888;BME280;6003;42.756;23.130;2023-02-28T00:17:20;153737.16;;;5.16;100.00
11888;BME280;6003;42.756;23.130;2023-02-28T00:19:48;153699.00;;;5.01;100.00
11888;BME280;6003;42.756;23.130;2023-02-28T00:22:15;153700.31;;;5.02;100.00
11888;BME280;6003;42.756;23.130;2023-02-28T00:24:42;153697.69;;;5.01;100.00
11888;BME280;6003;42.756;23.130;2023-02-28T00:27:09;153689.75;;;4.97;100.00
11888;BME280;6003;42.756;23.130;2023-02-28T00:29:37;153699.00;;;5.01;100.00
11888;BME280;6003;42.756;23.130;2023-02-28T00:32:05;153710.81;;;5.06;100.00
11888;BME280;6003;42.756;23.130;2023-02-28T00:34:32;153710.81;;;5.06;100.00
11888;BME280;6003;42.756;23.130;2023-02-28T00:37:03;153721.38;;;5.10;100.00
11888;BME280;6003;42.756;23.130;2023-02-28T00:39:31;153724.00;;;5.11;100.00
11888;BME280;6003;42.756;23.130;2023-02-28T00:41:58;153725.28;;;5.11;100.00
11888;BME280;6003;42.756;23.130;2023-02-28T00:44:24;153726.59;;;5.12;100.00
11888;BME280;6003;42.756;23.130;2023-02-28T00:46:52;153745.06;;;5.19;100.00
11888;BME280;6003;42.756;23.130;2023-02-28T00:49:19;153752.94;;;5.22;100.00
11888;BME280;6003;42.756;23.130;2023-02-28T00:51:47;153729.28;;;5.13;100.00
11888;BME280;6003;42.756;23.130;2023-02-28T00:54:13;153721.38;;;5.10;100.00
11888;BME280;6003;42.756;23.130;2023-02-28T00:56:40;153731.88;;;5.14;100.00
11888;BME280;6003;42.756;23.130;2023-02-28T00:59:07;153741.09;;;5.17;100.00
11888;BME280;6003;42.756;23.130;2023-02-28T01:01:34;153747.66;;;5.20;100.00
11888;BME280;6003;42.756;23.130;2023-02-28T01:04:03;153771.34;;;5.29;100.00
11888;BME280;6003;42.756;23.130;2023-02-28T01:06:30;153784.53;;;5.34;100.00
11888;BME280;6003;42.756;23.130;2023-02-28T01:08:56;153800.31;;;5.40;100.00
11888;BME280;6003;42.756;23.130;2023-02-28T01:11:23;153822.69;;;5.49;100.00
11888;BME280;6003;42.756;23.130;2023-02-28T01:13:51;153838.53;;;5.55;100.00
11888;BME280;6003;42.756;23.130;2023-02-28T01:16:18;153852.97;;;5.61;100.00
11888;BME280;6003;42.756;23.130;2023-02-28T01:18:45;153855.63;;;5.62;100.00
11888;BME280;6003;42.756;23.130;2023-02-28T01:21:15;153855.63;;;5.62;100.00
11888;BME280;6003;42.756;23.130;2023-02-28T01:23:42;153850.34;;;5.60;100.00
11888;BME280;6003;42.756;23.130;2023-02-28T01:26:11;153854.31;;;5.61;100.00
11888;BME280;6003;42.756;23.130;2023-02-28T01:28:39;153866.13;;;5.66;100.00
11888;BME280;6003;42.756;23.130;2023-02-28T01:31:06;153871.41;;;5.68;100.00
11888;BME280;6003;42.756;23.130;2023-02-28T01:33:33;153866.13;;;5.66;100.00
11888;BME280;6003;42.756;23.130;2023-02-28T01:36:01;153874.03;;;5.69;100.00
11888;BME280;6003;42.756;23.130;2023-02-28T01:38:29;153868.81;;;5.67;100.00
11888;BME280;6003;42.756;23.130;2023-02-28T01:40:56;153870.09;;;5.68;100.00
11888;BME280;6003;42.756;23.130;2023-02-28T01:43:25;153863.50;;;5.65;100.00
11888;BME280;6003;42.756;23.130;2023-02-28T01:45:53;153855.63;;;5.62;100.00
11888;BME280;6003;42.756;23.130;2023-02-28T01:48:24;153852.97;;;5.61;100.00
11888;BME280;6003;42.756;23.130;2023-02-28T01:50:53;153845.06;;;5.58;100.00
11888;BME280;6003;42.756;23.130;2023-02-28T01:53:24;153792.41;;;5.37;100.00
11888;BME280;6003;42.756;23.130;2023-02-28T01:55:54;153774.00;;;5.30;100.00
11888;BME280;6003;42.756;23.130;2023-02-28T01:58:21;153766.13;;;5.27;100.00
11888;BME280;6003;42.756;23.130;2023-02-28T02:00:48;153767.44;;;5.28;100.00
11888;BME280;6003;42.756;23.130;2023-02-28T02:03:17;153758.22;;;5.24;100.00
11888;BME280;6003;42.756;23.130;2023-02-28T02:05:45;153750.34;;;5.21;100.00
11888;BME280;6003;42.756;23.130;2023-02-28T02:08:15;153795.06;;;5.38;100.00
11888;BME280;6003;42.756;23.130;2023-02-28T02:10:45;153816.09;;;5.47;100.00
11888;BME280;6003;42.756;23.130;2023-02-28T02:13:22;153829.28;;;5.52;100.00
11888;BME280;6003;42.756;23.130;2023-02-28T02:15:59;153845.06;;;5.58;100.00
11888;BME280;6003;42.756;23.130;2023-02-28T02:18:33;153855.63;;;5.62;100.00
11888;BME280;6003;42.756;23.130;2023-02-28T02:24:23;153874.03;;;5.69;100.00
11888;BME280;6003;42.756;23.130;2023-02-28T02:27:06;153870.09;;;5.68;100.00
11888;BME280;6003;42.756;23.130;2023-02-28T02:30:02;153887.22;;;5.74;100.00
11888;BME280;6003;42.756;23.130;2023-02-28T02:32:47;153876.69;;;5.70;100.00
11888;BME280;6003;42.756;23.130;2023-02-28T02:35:25;153876.69;;;5.70;100.00
11888;BME280;6003;42.756;23.130;2023-02-28T02:37:59;153883.28;;;5.73;100.00
11888;BME280;6003;42.756;23.130;2023-02-28T02:40:36;153884.59;;;5.73;100.00
11888;BME280;6003;42.756;23.130;2023-02-28T02:43:09;153889.81;;;5.75;100.00
11888;BME280;6003;42.756;23.130;2023-02-28T02:45:42;153905.66;;;5.81;100.00
11888;BME280;6003;42.756;23.130;2023-02-28T02:48:19;153908.28;;;5.82;100.00
11888;BME280;6003;42.756;23.130;2023-02-28T02:50:50;153918.78;;;5.86;100.00
11888;BME280;6003;42.756;23.130;2023-02-28T02:53:19;153918.78;;;5.86;100.00
11888;BME280;6003;42.756;23.130;2023-02-28T02:55:50;153913.56;;;5.84;100.00
11888;BME280;6003;42.756;23.130;2023-02-28T02:58:23;153921.47;;;5.87;100.00
11888;BME280;6003;42.756;23.130;2023-02-28T03:00:53;153926.69;;;5.89;100.00
11888;BME280;6003;42.756;23.130;2023-02-28T03:03:22;153942.59;;;5.96;100.00
11888;BME280;6003;42.756;23.130;2023-02-28T03:05:56;153953.09;;;6.00;100.00
11888;BME280;6003;42.756;23.130;2023-02-28T03:08:24;153955.72;;;6.01;100.00
11888;BME280;6003;42.756;23.130;2023-02-28T03:10:52;153931.97;;;5.92;100.00
11888;BME280;6003;42.756;23.130;2023-02-28T03:13:39;153871.41;;;5.68;100.00
11888;BME280;6003;42.756;23.130;2023-02-28T03:19:17;153871.41;;;5.68;100.00
11888;BME280;6003;42.756;23.130;2023-02-28T03:21:57;153884.59;;;5.73;100.00
11888;BME280;6003;42.756;23.130;2023-02-28T03:24:30;153899.06;;;5.79;100.00
11888;BME280;6003;42.756;23.130;2023-02-28T03:27:06;153906.97;;;5.82;100.00
11888;BME280;6003;42.756;23.130;2023-02-28T03:29:38;153912.22;;;5.84;100.00
11888;BME280;6003;42.756;23.130;2023-02-28T03:32:12;153928.06;;;5.90;100.00
11888;BME280;6003;42.756;23.130;2023-02-28T03:34:47;153934.59;;;5.93;100.00
11888;BME280;6003;42.756;23.130;2023-02-28T03:37:18;153941.22;;;5.95;100.00
11888;BME280;6003;42.756;23.130;2023-02-28T03:39:49;153947.81;;;5.98;100.00
11888;BME280;6003;42.756;23.130;2023-02-28T03:42:20;153953.09;;;6.00;100.00
11888;BME280;6003;42.756;23.130;2023-02-28T03:44:51;153954.41;;;6.00;100.00
11888;BME280;6003;42.756;23.130;2023-02-28T03:47:23;153921.47;;;5.87;100.00
11888;BME280;6003;42.756;23.130;2023-02-28T03:49:53;153900.38;;;5.79;100.00
11888;BME280;6003;42.756;23.130;2023-02-28T03:52:27;153900.38;;;5.79;100.00
11888;BME280;6003;42.756;23.130;2023-02-28T03:54:56;153883.28;;;5.73;100.00
11888;BME280;6003;42.756;23.130;2023-02-28T03:57:33;153855.63;;;5.62;100.00
11888;BME280;6003;42.756;23.130;2023-02-28T04:00:06;153774.00;;;5.30;100.00
11888;BME280;6003;42.756;23.130;2023-02-28T04:02:36;153762.16;;;5.26;100.00
11888;BME280;6003;42.756;23.130;2023-02-28T04:05:03;153768.72;;;5.28;100.00
11888;BME280;6003;42.756;23.130;2023-02-28T04:07:32;153745.06;;;5.19;100.00
11888;BME280;6003;42.756;23.130;2023-02-28T04:09:59;153787.19;;;5.35;100.00
11888;BME280;6003;42.756;23.130;2023-02-28T04:12:26;153806.91;;;5.43;100.00
11888;BME280;6003;42.756;23.130;2023-02-28T04:14:53;153829.28;;;5.52;100.00
11888;BME280;6003;42.756;23.130;2023-02-28T04:17:19;153842.44;;;5.57;100.00
11888;BME280;6003;42.756;23.130;2023-02-28T04:19:46;153855.63;;;5.62;100.00
11888;BME280;6003;42.756;23.130;2023-02-28T04:22:13;153854.31;;;5.61;100.00
11888;BME280;6003;42.756;23.130;2023-02-28T04:24:41;153846.41;;;5.58;100.00
11888;BME280;6003;42.756;23.130;2023-02-28T04:27:08;153835.84;;;5.54;100.00
11888;BME280;6003;42.756;23.130;2023-02-28T04:29:35;153842.44;;;5.57;100.00
11888;BME280;6003;42.756;23.130;2023-02-28T04:32:03;153829.28;;;5.52;100.00
11888;BME280;6003;42.756;23.130;2023-02-28T04:34:31;153837.16;;;5.55;100.00
11888;BME280;6003;42.756;23.130;2023-02-28T04:36:58;153846.41;;;5.58;100.00
11888;BME280;6003;42.756;23.130;2023-02-28T04:39:26;153850.34;;;5.60;100.00
11888;BME280;6003;42.756;23.130;2023-02-28T04:41:54;153825.34;;;5.50;100.00
11888;BME280;6003;42.756;23.130;2023-02-28T04:44:21;153826.66;;;5.51;100.00
11888;BME280;6003;42.756;23.130;2023-02-28T04:46:48;153839.84;;;5.56;100.00
11888;BME280;6003;42.756;23.130;2023-02-28T04:49:15;153839.84;;;5.56;100.00
11888;BME280;6003;42.756;23.130;2023-02-28T04:51:42;153858.25;;;5.63;100.00
11888;BME280;6003;42.756;23.130;2023-02-28T04:54:09;153856.94;;;5.62;100.00
11888;BME280;6003;42.756;23.130;2023-02-28T04:56:35;153845.06;;;5.58;100.00
11888;BME280;6003;42.756;23.130;2023-02-28T04:59:04;153822.69;;;5.49;100.00
11888;BME280;6003;42.756;23.130;2023-02-28T05:01:32;153792.41;;;5.37;100.00
11888;BME280;6003;42.756;23.130;2023-02-28T05:04:02;153784.53;;;5.34;100.00
11888;BME280;6003;42.756;23.130;2023-02-28T05:06:31;153763.47;;;5.26;100.00
11888;BME280;6003;42.756;23.130;2023-02-28T05:08:58;153770.03;;;5.29;100.00
11888;BME280;6003;42.756;23.130;2023-02-28T05:11:28;153771.34;;;5.29;100.00
11888;BME280;6003;42.756;23.130;2023-02-28T05:14:00;153781.91;;;5.33;100.00
11888;BME280;6003;42.756;23.130;2023-02-28T05:16:28;153806.91;;;5.43;100.00
11888;BME280;6003;42.756;23.130;2023-02-28T05:18:55;153827.97;;;5.51;100.00
11888;BME280;6003;42.756;23.130;2023-02-28T05:21:28;153820.06;;;5.48;100.00
11888;BME280;6003;42.756;23.130;2023-02-28T05:23:56;153813.47;;;5.46;100.00
11888;BME280;6003;42.756;23.130;2023-02-28T05:26:24;153792.41;;;5.37;100.00
11888;BME280;6003;42.756;23.130;2023-02-28T05:28:51;153763.47;;;5.26;100.00
11888;BME280;6003;42.756;23.130;2023-02-28T05:31:18;153751.63;;;5.22;100.00
11888;BME280;6003;42.756;23.130;2023-02-28T05:33:47;153771.34;;;5.29;100.00
11888;BME280;6003;42.756;23.130;2023-02-28T05:36:14;153776.63;;;5.31;100.00
11888;BME280;6003;42.756;23.130;2023-02-28T05:38:41;153781.91;;;5.33;100.00
11888;BME280;6003;42.756;23.130;2023-02-28T05:41:09;153821.38;;;5.49;100.00
11888;BME280;6003;42.756;23.130;2023-02-28T05:43:37;153816.09;;;5.47;100.00
11888;BME280;6003;42.756;23.130;2023-02-28T05:46:05;153785.81;;;5.35;100.00
11888;BME280;6003;42.756;23.130;2023-02-28T05:48:32;153789.78;;;5.36;100.00
11888;BME280;6003;42.756;23.130;2023-02-28T05:51:01;153784.53;;;5.34;100.00
11888;BME280;6003;42.756;23.130;2023-02-28T05:53:29;153797.69;;;5.39;100.00
11888;BME280;6003;42.756;23.130;2023-02-28T05:55:56;153781.91;;;5.33;100.00
11888;BME280;6003;42.756;23.130;2023-02-28T05:58:23;153795.06;;;5.38;100.00
11888;BME280;6003;42.756;23.130;2023-02-28T06:00:51;153824.03;;;5.50;100.00
11888;BME280;6003;42.756;23.130;2023-02-28T06:03:17;153834.56;;;5.54;100.00
11888;BME280;6003;42.756;23.130;2023-02-28T06:05:44;153851.66;;;5.60;100.00
11888;BME280;6003;42.756;23.130;2023-02-28T06:08:12;153868.81;;;5.67;100.00
11888;BME280;6003;42.756;23.130;2023-02-28T06:10:39;153868.81;;;5.67;100.00
11888;BME280;6003;42.756;23.130;2023-02-28T06:13:06;153868.81;;;5.67;100.00
11888;BME280;6003;42.756;23.130;2023-02-28T06:15:33;153852.97;;;5.61;100.00
11888;BME280;6003;42.756;23.130;2023-02-28T06:18:00;153804.28;;;5.42;100.00
11888;BME280;6003;42.756;23.130;2023-02-28T06:20:27;153817.47;;;5.47;100.00
11888;BME280;6003;42.756;23.130;2023-02-28T06:22:55;153831.94;;;5.53;100.00
11888;BME280;6003;42.756;23.130;2023-02-28T06:25:25;153826.66;;;5.51;100.00
11888;BME280;6003;42.756;23.130;2023-02-28T06:27:52;153808.19;;;5.43;100.00
11888;BME280;6003;42.756;23.130;2023-02-28T06:30:19;153802.97;;;5.41;100.00
11888;BME280;6003;42.756;23.130;2023-02-28T06:32:50;153808.19;;;5.43;100.00
11888;BME280;6003;42.756;23.130;2023-02-28T06:35:17;153821.38;;;5.49;100.00
11888;BME280;6003;42.756;23.130;2023-02-28T06:37:44;153821.38;;;5.49;100.00
11888;BME280;6003;42.756;23.130;2023-02-28T06:40:13;153847.72;;;5.59;100.00
11888;BME280;6003;42.756;23.130;2023-02-28T06:42:41;153851.66;;;5.60;100.00
11888;BME280;6003;42.756;23.130;2023-02-28T06:45:09;153837.16;;;5.55;100.00
11888;BME280;6003;42.756;23.130;2023-02-28T06:47:36;153847.72;;;5.59;100.00
11888;BME280;6003;42.756;23.130;2023-02-28T06:50:04;153818.75;;;5.48;100.00
11888;BME280;6003;42.756;23.130;2023-02-28T06:52:31;153814.78;;;5.46;100.00
11888;BME280;6003;42.756;23.130;2023-02-28T06:55:01;153855.63;;;5.62;100.00
11888;BME280;6003;42.756;23.130;2023-02-28T06:57:29;153830.59;;;5.52;100.00
11888;BME280;6003;42.756;23.130;2023-02-28T07:00:00;153860.91;;;5.64;100.00
11888;BME280;6003;42.756;23.130;2023-02-28T07:02:28;153891.19;;;5.76;100.00
11888;BME280;6003;42.756;23.130;2023-02-28T07:04:55;153924.06;;;5.88;100.00
11888;BME280;6003;42.756;23.130;2023-02-28T07:07:22;153957.06;;;6.01;100.00
11888;BME280;6003;42.756;23.130;2023-02-28T07:09:48;153975.50;;;6.08;100.00
11888;BME280;6003;42.756;23.130;2023-02-28T07:12:15;153983.38;;;6.12;100.00
11888;BME280;6003;42.756;23.130;2023-02-28T07:14:42;153995.25;;;6.16;100.00
11888;BME280;6003;42.756;23.130;2023-02-28T07:17:11;154004.47;;;6.20;100.00
11888;BME280;6003;42.756;23.130;2023-02-28T07:19:38;154011.06;;;6.22;100.00
11888;BME280;6003;42.756;23.130;2023-02-28T07:22:05;154011.06;;;6.22;100.00
11888;BME280;6003;42.756;23.130;2023-02-28T07:24:32;154033.44;;;6.31;100.00
11888;BME280;6003;42.756;23.130;2023-02-28T07:26:59;154046.63;;;6.36;100.00
11888;BME280;6003;42.756;23.130;2023-02-28T07:29:27;154032.16;;;6.30;100.00
11888;BME280;6003;42.756;23.130;2023-02-28T07:31:54;154054.53;;;6.39;100.00
11888;BME280;6003;42.756;23.130;2023-02-28T07:34:22;154071.66;;;6.46;100.00
11888;BME280;6003;42.756;23.130;2023-02-28T07:36:52;154101.94;;;6.58;100.00
11888;BME280;6003;42.756;23.130;2023-02-28T07:39:32;154140.16;;;6.72;100.00
11888;BME280;6003;42.756;23.130;2023-02-28T07:41:59;154142.81;;;6.73;100.00
11888;BME280;6003;42.756;23.130;2023-02-28T07:44:29;154161.25;;;6.81;100.00
11888;BME280;6003;42.756;23.130;2023-02-28T07:46:55;154174.44;;;6.86;100.00
11888;BME280;6003;42.756;23.130;2023-02-28T07:49:24;154194.22;;;6.93;100.00
11888;BME280;6003;42.756;23.130;2023-02-28T07:51:50;154206.03;;;6.98;100.00
11888;BME280;6003;42.756;23.130;2023-02-28T07:54:17;154229.75;;;7.07;100.00
11888;BME280;6003;42.756;23.130;2023-02-28T07:56:44;154258.75;;;7.18;100.00
11888;BME280;6003;42.756;23.130;2023-02-28T07:59:11;154256.16;;;7.17;100.00
11888;BME280;6003;42.756;23.130;2023-02-28T08:01:38;154261.44;;;7.19;100.00
11888;BME280;6003;42.756;23.130;2023-02-28T08:04:05;154298.34;;;7.34;100.00
11888;BME280;6003;42.756;23.130;2023-02-28T08:06:33;154332.59;;;7.47;100.00
11888;BME280;6003;42.756;23.130;2023-02-28T08:09:00;154347.09;;;7.53;100.00
11888;BME280;6003;42.756;23.130;2023-02-28T08:11:27;154385.34;;;7.67;100.00
11888;BME280;6003;42.756;23.130;2023-02-28T08:13:54;154430.16;;;7.85;100.00
11888;BME280;6003;42.756;23.130;2023-02-28T08:16:21;154456.56;;;7.95;100.00
11888;BME280;6003;42.756;23.130;2023-02-28T08:18:49;154480.31;;;8.04;100.00
11888;BME280;6003;42.756;23.130;2023-02-28T08:21:16;154485.59;;;8.06;100.00
11888;BME280;6003;42.756;23.130;2023-02-28T08:23:46;154461.88;;;7.97;100.00
11888;BME280;6003;42.756;23.130;2023-02-28T08:26:13;154435.47;;;7.87;100.00
11888;BME280;6003;42.756;23.130;2023-02-28T08:28:39;154439.44;;;7.88;100.00
11888;BME280;6003;42.756;23.130;2023-02-28T08:31:10;154461.88;;;7.97;100.00
11888;BME280;6003;42.756;23.130;2023-02-28T08:33:39;154451.28;;;7.93;100.00
11888;BME280;6003;42.756;23.130;2023-02-28T08:36:08;154446.00;;;7.91;100.00
11888;BME280;6003;42.756;23.130;2023-02-28T08:38:35;154456.56;;;7.95;100.00
11888;BME280;6003;42.756;23.130;2023-02-28T08:41:05;154461.88;;;7.97;100.00
11888;BME280;6003;42.756;23.130;2023-02-28T08:43:33;154476.38;;;8.03;100.00
11888;BME280;6003;42.756;23.130;2023-02-28T08:46:00;154481.63;;;8.05;100.00
11888;BME280;6003;42.756;23.130;2023-02-28T08:48:28;154482.91;;;8.05;100.00
11888;BME280;6003;42.756;23.130;2023-02-28T08:50:56;154469.78;;;8.00;100.00
11888;BME280;6003;42.756;23.130;2023-02-28T08:53:24;154476.38;;;8.03;100.00
11888;BME280;6003;42.756;23.130;2023-02-28T08:55:57;154467.09;;;7.99;100.00
11888;BME280;6003;42.756;23.130;2023-02-28T08:58:26;154492.19;;;8.09;100.00
11888;BME280;6003;42.756;23.130;2023-02-28T09:00:53;154482.91;;;8.05;100.00
11888;BME280;6003;42.756;23.130;2023-02-28T09:03:21;154506.72;;;8.14;100.00
11888;BME280;6003;42.756;23.130;2023-02-28T09:05:55;154525.16;;;8.22;100.00
11888;BME280;6003;42.756;23.130;2023-02-28T09:08:23;154547.59;;;8.30;100.00
11888;BME280;6003;42.756;23.130;2023-02-28T09:10:50;154567.38;;;8.38;100.00
11888;BME280;6003;42.756;23.130;2023-02-28T09:13:17;154576.66;;;8.42;100.00
11888;BME280;6003;42.756;23.130;2023-02-28T09:15:46;154555.50;;;8.33;100.00
11888;BME280;6003;42.756;23.130;2023-02-28T09:18:13;154535.75;;;8.26;100.00
11888;BME280;6003;42.756;23.130;2023-02-28T09:20:41;154514.63;;;8.18;100.00
11888;BME280;6003;42.756;23.130;2023-02-28T09:23:09;154514.63;;;8.18;100.00
11888;BME280;6003;42.756;23.130;2023-02-28T09:25:37;154475.00;;;8.02;100.00
11888;BME280;6003;42.756;23.130;2023-02-28T09:28:04;154485.59;;;8.06;100.00
11888;BME280;6003;42.756;23.130;2023-02-28T09:30:31;154509.34;;;8.16;100.00
11888;BME280;6003;42.756;23.130;2023-02-28T09:32:59;154525.16;;;8.22;100.00
11888;BME280;6003;42.756;23.130;2023-02-28T09:35:26;154548.91;;;8.31;100.00
11888;BME280;6003;42.756;23.130;2023-02-28T09:37:53;154543.66;;;8.29;100.00
11888;BME280;6003;42.756;23.130;2023-02-28T09:40:22;154564.72;;;8.37;100.00
11888;BME280;6003;42.756;23.130;2023-02-28T09:42:51;154583.28;;;8.44;100.00
11888;BME280;6003;42.756;23.130;2023-02-28T09:45:24;154588.56;;;8.46;100.00
11888;BME280;6003;42.756;23.130;2023-02-28T09:47:55;154616.25;;;8.57;100.00
11888;BME280;6003;42.756;23.130;2023-02-28T09:50:30;154646.59;;;8.69;100.00
11888;BME280;6003;42.756;23.130;2023-02-28T09:53:02;154531.75;;;8.24;100.00
11888;BME280;6003;42.756;23.130;2023-02-28T09:55:33;154564.72;;;8.37;100.00
11888;BME280;6003;42.756;23.130;2023-02-28T09:58:01;154596.47;;;8.49;100.00
11888;BME280;6003;42.756;23.130;2023-02-28T10:00:32;154567.38;;;8.38;100.00
11888;BME280;6003;42.756;23.130;2023-02-28T10:03:23;154564.72;;;8.37;100.00
11888;BME280;6003;42.756;23.130;2023-02-28T10:05:54;154593.81;;;8.48;100.00
11888;BME280;6003;42.756;23.130;2023-02-28T10:08:26;154699.44;;;8.89;100.00
11888;BME280;6003;42.756;23.130;2023-02-28T10:10:58;154683.53;;;8.83;100.00
11888;BME280;6003;42.756;23.130;2023-02-28T10:13:32;154658.50;;;8.73;100.00
11888;BME280;6003;42.756;23.130;2023-02-28T10:16:04;154717.88;;;8.96;100.00
11888;BME280;6003;42.756;23.130;2023-02-28T10:18:40;154741.63;;;9.06;100.00
11888;BME280;6003;42.756;23.130;2023-02-28T10:21:18;154725.81;;;8.99;100.00
11888;BME280;6003;42.756;23.130;2023-02-28T10:23:48;154777.28;;;9.19;100.00
11888;BME280;6003;42.756;23.130;2023-02-28T10:26:17;154831.41;;;9.40;100.00
11888;BME280;6003;42.756;23.130;2023-02-28T10:28:44;154879.00;;;9.59;100.00
11888;BME280;6003;42.756;23.130;2023-02-28T10:31:14;154905.38;;;9.69;100.00
11888;BME280;6003;42.756;23.130;2023-02-28T10:33:43;154847.25;;;9.46;100.00
11888;BME280;6003;42.756;23.130;2023-02-28T10:36:14;154905.38;;;9.69;100.00
11888;BME280;6003;42.756;23.130;2023-02-28T10:38:42;154966.13;;;9.92;100.00
11888;BME280;6003;42.756;23.130;2023-02-28T10:41:11;155019.03;;;10.13;100.00
11888;BME280;6003;42.756;23.130;2023-02-28T10:43:40;155108.94;;;10.48;100.00
11888;BME280;6003;42.756;23.130;2023-02-28T10:46:13;155093.09;;;10.42;100.00
11888;BME280;6003;42.756;23.130;2023-02-28T10:49:01;155036.19;;;10.20;100.00
11888;BME280;6003;42.756;23.130;2023-02-28T10:51:37;154853.88;;;9.49;100.00
11888;BME280;6003;42.756;23.130;2023-02-28T10:54:04;154914.66;;;9.73;100.00
11888;BME280;6003;42.756;23.130;2023-02-28T10:56:31;154931.81;;;9.79;100.00
11888;BME280;6003;42.756;23.130;2023-02-28T10:59:00;155000.50;;;10.06;100.00
11888;BME280;6003;42.756;23.130;2023-02-28T11:01:37;155065.31;;;10.31;100.00
11888;BME280;6003;42.756;23.130;2023-02-28T11:04:17;155130.09;;;10.56;100.00
11888;BME280;6003;42.756;23.130;2023-02-28T11:06:46;155210.69;;;10.87;100.00
11888;BME280;6003;42.756;23.130;2023-02-28T11:09:19;155246.41;;;11.01;100.00
11888;BME280;6003;42.756;23.130;2023-02-28T11:11:49;155241.09;;;10.99;100.00
11888;BME280;6003;42.756;23.130;2023-02-28T11:14:20;155182.97;;;10.76;100.00
11888;BME280;6003;42.756;23.130;2023-02-28T11:16:48;155182.97;;;10.76;100.00
11888;BME280;6003;42.756;23.130;2023-02-28T11:19:19;155279.50;;;11.14;100.00
11888;BME280;6003;42.756;23.130;2023-02-28T11:21:53;155297.97;;;11.21;100.00
11888;BME280;6003;42.756;23.130;2023-02-28T11:24:24;155259.63;;;11.06;98.20
11888;BME280;6003;42.756;23.130;2023-02-28T11:26:52;155233.16;;;10.96;97.59
11888;BME280;6003;42.756;23.130;2023-02-28T11:29:22;155217.31;;;10.90;98.99
11888;BME280;6003;42.756;23.130;2023-02-28T11:32:12;155217.31;;;10.90;98.09
11888;BME280;6003;42.756;23.130;2023-02-28T11:34:40;155238.47;;;10.98;98.38
11888;BME280;6003;42.756;23.130;2023-02-28T11:37:13;155225.25;;;10.93;98.63
11888;BME280;6003;42.756;23.130;2023-02-28T11:39:41;155206.75;;;10.86;97.70
11888;BME280;6003;42.756;23.130;2023-02-28T11:45:16;155082.47;;;10.37;99.82
11888;BME280;6003;42.756;23.130;2023-02-28T11:47:48;155053.34;;;10.26;100.00
11888;BME280;6003;42.756;23.130;2023-02-28T11:50:22;155012.41;;;10.10;99.06
11888;BME280;6003;42.756;23.130;2023-02-28T11:52:56;154970.13;;;9.94;100.00
11888;BME280;6003;42.756;23.130;2023-02-28T11:55:26;154913.31;;;9.72;100.00
11888;BME280;6003;42.756;23.130;2023-02-28T11:58:14;154939.75;;;9.82;100.00
11888;BME280;6003;42.756;23.130;2023-02-28T12:01:21;154974.13;;;9.96;100.00
11888;BME280;6003;42.756;23.130;2023-02-28T12:03:58;154968.81;;;9.93;100.00
11888;BME280;6003;42.756;23.130;2023-02-28T12:06:32;154930.50;;;9.79;100.00
11888;BME280;6003;42.756;23.130;2023-02-28T12:09:14;154931.81;;;9.79;100.00
11888;BME280;6003;42.756;23.130;2023-02-28T12:11:50;154908.06;;;9.70;99.89
11888;BME280;6003;42.756;23.130;2023-02-28T12:14:29;154945.03;;;9.84;100.00
11888;BME280;6003;42.756;23.130;2023-02-28T12:17:09;154967.50;;;9.93;100.00
11888;BME280;6003;42.756;23.130;2023-02-28T12:19:45;154966.13;;;9.92;98.60
11888;BME280;6003;42.756;23.130;2023-02-28T12:22:27;154964.81;;;9.92;98.83
11888;BME280;6003;42.756;23.130;2023-02-28T12:25:20;155003.13;;;10.07;99.84
11888;BME280;6003;42.756;23.130;2023-02-28T12:27:49;155034.88;;;10.19;99.29
11888;BME280;6003;42.756;23.130;2023-02-28T12:30:22;155085.13;;;10.38;98.59
11888;BME280;6003;42.756;23.130;2023-02-28T12:32:54;155054.72;;;10.27;96.26
11888;BME280;6003;42.756;23.130;2023-02-28T12:35:26;155061.34;;;10.29;97.75
11888;BME280;6003;42.756;23.130;2023-02-28T12:37:57;154968.81;;;9.93;97.74
11888;BME280;6003;42.756;23.130;2023-02-28T12:40:43;155064.00;;;10.30;98.84
11888;BME280;6003;42.756;23.130;2023-02-28T12:43:13;155103.66;;;10.46;98.87
11888;BME280;6003;42.756;23.130;2023-02-28T12:45:45;155101.00;;;10.45;97.30
11888;BME280;6003;42.756;23.130;2023-02-28T12:48:17;154997.88;;;10.05;96.58
11888;BME280;6003;42.756;23.130;2023-02-28T12:50:47;154972.75;;;9.95;97.19
11888;BME280;6003;42.756;23.130;2023-02-28T12:53:21;154971.44;;;9.94;97.27
11888;BME280;6003;42.756;23.130;2023-02-28T12:55:59;154975.44;;;9.96;97.47
11888;BME280;6003;42.756;23.130;2023-02-28T12:58:33;154952.97;;;9.87;98.68
11888;BME280;6003;42.756;23.130;2023-02-28T13:01:25;154890.84;;;9.63;98.61
11888;BME280;6003;42.756;23.130;2023-02-28T13:04:26;154905.38;;;9.69;98.93
11888;BME280;6003;42.756;23.130;2023-02-28T13:07:23;154926.53;;;9.77;98.60
11888;BME280;6003;42.756;23.130;2023-02-28T13:09:57;154923.91;;;9.76;99.60
11888;BME280;6003;42.756;23.130;2023-02-28T13:12:27;154939.75;;;9.82;99.09
11888;BME280;6003;42.756;23.130;2023-02-28T13:15:07;154946.34;;;9.85;98.49